createdAt,value
2023-05-04T00:00:03.570Z,95.89
2023-05-04T00:03:25.667Z,95.32
2023-05-04T00:06:49.457Z,95.02
2023-05-04T00:10:12.129Z,96.19
2023-05-04T00:13:33.809Z,94.98
2023-05-04T00:16:55.665Z,94.78
2023-05-04T00:20:17.549Z,95.15
2023-05-04T00:23:40.536Z,95.38
2023-05-04T00:27:05.292Z,95.34
2023-05-04T00:30:27.271Z,95.86
2023-05-04T00:33:49.028Z,95.34
2023-05-04T00:37:10.690Z,95.27
2023-05-04T00:40:35.294Z,95.41
2023-05-04T00:43:57.212Z,95.35
2023-05-04T00:47:19.802Z,95.62
2023-05-04T00:50:42.248Z,94.78
2023-05-04T00:54:04.594Z,95.27
2023-05-04T00:57:28.224Z,95.16
2023-05-04T01:00:50.007Z,94.87
2023-05-04T01:04:13.094Z,94.54
2023-05-04T01:07:44.020Z,94.72
2023-05-04T01:11:12.371Z,94.81
2023-05-04T01:14:37.356Z,94.69
2023-05-04T01:17:59.095Z,94.59
2023-05-04T01:21:20.781Z,94.22
2023-05-04T01:24:44.192Z,93.66
2023-05-04T01:28:09.648Z,95.10
2023-05-04T01:31:32.744Z,94.33
2023-05-04T01:34:55.471Z,94.05
2023-05-04T01:38:17.645Z,94.41
2023-05-04T01:41:41.726Z,94.07
2023-05-04T01:45:04.624Z,94.35
2023-05-04T01:48:28.430Z,94.06
2023-05-04T01:51:50.580Z,93.70
2023-05-04T01:55:12.634Z,94.63
2023-05-04T01:58:35.898Z,94.42
2023-05-04T02:01:57.739Z,94.11
2023-05-04T02:05:19.664Z,94.05
2023-05-04T02:08:41.548Z,94.04
2023-05-04T02:12:03.856Z,94.26
2023-05-04T02:15:27.348Z,94.35
2023-05-04T02:18:49.529Z,94.34
2023-05-04T02:22:11.469Z,94.08
2023-05-04T02:25:33.422Z,94.47
2023-05-04T02:28:55.169Z,94.66
2023-05-04T02:32:18.607Z,94.45
2023-05-04T02:35:40.615Z,94.97
2023-05-04T02:39:02.496Z,94.27
2023-05-04T02:42:24.761Z,94.39
2023-05-04T02:45:46.760Z,94.54
2023-05-04T02:49:10.125Z,94.38
2023-05-04T02:52:32.020Z,94.40
2023-05-04T02:55:54.145Z,94.08
2023-05-04T02:59:15.978Z,93.62
2023-05-04T03:02:37.906Z,94.16
2023-05-04T03:06:01.250Z,93.51
2023-05-04T03:09:23.183Z,94.18
2023-05-04T03:12:45.289Z,93.37
2023-05-04T03:16:07.369Z,93.55
2023-05-04T03:19:29.179Z,93.03
2023-05-04T03:22:52.304Z,92.95
2023-05-04T03:26:14.246Z,92.13
2023-05-04T03:29:36.206Z,94.18
2023-05-04T03:32:58.570Z,92.04
2023-05-04T03:36:20.730Z,92.03
2023-05-04T03:39:43.890Z,92.29
2023-05-04T03:43:05.995Z,91.74
2023-05-04T03:46:27.834Z,92.28
2023-05-04T03:49:49.553Z,91.53
2023-05-04T03:53:11.570Z,91.10
2023-05-04T03:56:34.654Z,91.30
2023-05-04T03:59:57.851Z,91.92
2023-05-04T04:03:20.248Z,91.63
2023-05-04T04:06:43.428Z,92.61
2023-05-04T04:10:06.121Z,93.52
2023-05-04T04:13:29.649Z,94.68
2023-05-04T04:16:51.751Z,95.34
2023-05-04T04:20:14.534Z,95.89
2023-05-04T04:23:36.581Z,95.87
2023-05-04T04:26:58.546Z,96.11
2023-05-04T04:30:21.932Z,95.39
2023-05-04T04:33:43.970Z,95.29
2023-05-04T04:37:06.239Z,95.88
2023-05-04T04:40:28.326Z,97.26
2023-05-04T04:43:50.132Z,94.54
2023-05-04T04:47:13.944Z,94.37
2023-05-04T04:50:39.408Z,93.24
2023-05-04T04:54:01.211Z,92.76
2023-05-04T04:57:23.183Z,90.68
2023-05-04T05:00:47.634Z,89.45
2023-05-04T05:04:11.305Z,86.96
2023-05-04T05:07:33.514Z,86.45
2023-05-04T05:10:56.389Z,85.71
2023-05-04T05:14:18.593Z,85.45
2023-05-04T05:17:40.567Z,83.30
2023-05-04T05:21:03.964Z,80.46
2023-05-04T05:24:25.983Z,77.14
2023-05-04T05:27:47.737Z,79.01
2023-05-04T05:31:09.917Z,77.85
2023-05-04T05:34:31.774Z,74.19
2023-05-04T05:37:55.455Z,73.82
2023-05-04T05:41:17.235Z,71.55
2023-05-04T05:44:38.843Z,71.76
2023-05-04T05:48:00.703Z,68.96
2023-05-04T05:51:22.401Z,68.59
2023-05-04T05:54:45.505Z,68.81
2023-05-04T05:58:08.734Z,67.94
2023-05-04T06:01:31.225Z,63.83
2023-05-04T06:04:52.824Z,66.06
2023-05-04T06:08:14.638Z,63.89
2023-05-04T06:11:38.064Z,64.48
2023-05-04T06:15:00.347Z,64.30
2023-05-04T06:18:22.745Z,65.13
2023-05-04T06:21:44.737Z,64.27
2023-05-04T06:25:08.093Z,65.29
2023-05-04T06:28:31.568Z,64.72
2023-05-04T06:31:53.623Z,65.06
2023-05-04T06:35:15.407Z,62.77
2023-05-04T06:38:38.895Z,63.05
2023-05-04T06:42:01.067Z,62.05
2023-05-04T06:45:24.373Z,62.27
2023-05-04T06:48:46.326Z,62.45
2023-05-04T06:52:08.361Z,59.45
2023-05-04T06:55:30.160Z,57.67
2023-05-04T06:58:52.168Z,56.98
2023-05-04T07:02:15.486Z,57.07
2023-05-04T07:05:37.752Z,53.06
2023-05-04T07:08:59.652Z,55.09
2023-05-04T07:12:21.619Z,52.55
2023-05-04T07:15:43.517Z,49.72
2023-05-04T07:19:07.182Z,50.04
2023-05-04T07:22:29.951Z,51.85
2023-05-04T07:25:53.769Z,53.39
2023-05-04T07:29:15.850Z,52.51
2023-05-04T07:32:37.583Z,52.21
2023-05-04T07:36:01.291Z,49.71
2023-05-04T07:39:23.599Z,50.31
2023-05-04T07:42:45.955Z,48.68
2023-05-04T07:46:08.131Z,49.67
2023-05-04T07:49:30.133Z,48.71
2023-05-04T07:52:53.607Z,48.68
2023-05-04T07:56:15.744Z,46.27
2023-05-04T07:59:37.489Z,48.13
2023-05-04T08:02:59.434Z,49.19
2023-05-04T08:06:22.184Z,49.15
2023-05-04T08:09:45.635Z,49.00
2023-05-04T08:13:07.744Z,47.38
2023-05-04T08:16:29.623Z,44.32
2023-05-04T08:19:51.371Z,43.58
2023-05-04T08:23:13.432Z,43.99
2023-05-04T08:26:38.396Z,42.61
2023-05-04T08:30:00.267Z,43.90
2023-05-04T08:33:22.068Z,43.49
2023-05-04T08:36:43.984Z,41.88
2023-05-04T08:40:07.143Z,41.67
2023-05-04T08:51:46.889Z,42.17
2023-05-04T08:55:12.871Z,42.30
2023-05-04T08:58:38.131Z,42.03
2023-05-04T09:02:00.528Z,41.75
2023-05-04T09:05:22.581Z,40.26
2023-05-04T09:08:46.275Z,41.61
2023-05-04T09:12:08.722Z,41.96
2023-05-04T09:15:31.685Z,39.31
2023-05-04T09:18:53.694Z,41.39
2023-05-04T09:22:17.328Z,39.83
2023-05-04T09:25:49.885Z,37.67
2023-05-04T09:29:13.506Z,38.07
2023-05-04T09:32:45.895Z,40.76
2023-05-04T09:36:15.683Z,39.65
2023-05-04T09:39:37.788Z,41.44
2023-05-04T09:43:01.222Z,40.06
2023-05-04T09:46:23.244Z,41.49
2023-05-04T09:49:44.906Z,42.14
2023-05-04T09:53:08.867Z,41.63
2023-05-04T09:56:40.057Z,38.55
2023-05-04T10:00:04.577Z,40.25
2023-05-04T10:03:28.221Z,38.34
2023-05-04T10:06:50.446Z,37.41
2023-05-04T10:10:13.684Z,38.55
2023-05-04T10:13:35.773Z,38.45
2023-05-04T10:17:17.254Z,38.06
2023-05-04T10:21:09.598Z,38.07
2023-05-04T10:24:54.848Z,39.79
2023-05-04T10:28:29.611Z,39.16
2023-05-04T10:31:52.047Z,38.11
2023-05-04T10:35:18.787Z,40.19
2023-05-04T10:38:42.355Z,39.62
2023-05-04T10:42:05.826Z,39.24
2023-05-04T10:45:36.418Z,40.40
2023-05-04T10:48:58.325Z,39.68
2023-05-04T10:52:21.539Z,38.64
2023-05-04T10:55:45.188Z,38.41
2023-05-04T10:59:11.117Z,38.63
2023-05-04T11:02:34.139Z,38.67
2023-05-04T11:05:55.868Z,38.23
2023-05-04T11:09:19.691Z,37.55
2023-05-04T11:12:41.469Z,40.08
2023-05-04T11:16:03.851Z,38.15
2023-05-04T11:19:25.982Z,36.46
2023-05-04T11:22:48.054Z,35.62
2023-05-04T11:26:12.522Z,34.80
2023-05-04T11:29:34.373Z,36.31
2023-05-04T11:33:00.450Z,35.20
2023-05-04T11:36:23.690Z,37.62
2023-05-04T11:39:45.465Z,36.70
2023-05-04T11:43:11.760Z,38.04
2023-05-04T11:46:35.101Z,35.17
2023-05-04T11:49:57.338Z,35.02
2023-05-04T11:53:21.750Z,35.45
2023-05-04T11:56:44.137Z,35.89
2023-05-04T12:00:09.269Z,35.46
2023-05-04T12:03:51.197Z,37.11
2023-05-04T12:07:14.610Z,35.94
2023-05-04T12:10:36.474Z,34.58
2023-05-04T12:14:06.272Z,33.44
2023-05-04T12:17:41.500Z,33.46
2023-05-04T12:21:10.051Z,32.92
2023-05-04T12:24:31.953Z,34.10
2023-05-04T12:27:54.752Z,32.37
2023-05-04T12:31:17.429Z,32.99
2023-05-04T12:34:40.902Z,32.66
2023-05-04T12:38:03.067Z,32.80
2023-05-04T12:41:25.245Z,33.28
2023-05-04T12:44:47.387Z,33.04
2023-05-04T12:48:09.077Z,31.87
2023-05-04T12:51:32.448Z,33.05
2023-05-04T12:54:54.145Z,33.36
2023-05-04T12:58:16.014Z,33.93
2023-05-04T13:01:38.169Z,33.50
2023-05-04T13:04:59.893Z,32.82
2023-05-04T13:08:23.777Z,32.37
2023-05-04T13:11:45.957Z,32.25
2023-05-04T13:15:09.280Z,33.21
2023-05-04T13:18:31.021Z,31.40
2023-05-04T13:21:52.958Z,31.70
2023-05-04T13:25:16.753Z,31.48
2023-05-04T13:28:39.400Z,32.49
2023-05-04T13:32:01.360Z,31.73
2023-05-04T13:35:24.002Z,33.12
2023-05-04T13:38:45.772Z,32.44
2023-05-04T13:42:09.056Z,32.67
2023-05-04T13:45:31.016Z,32.18
2023-05-04T13:48:54.220Z,29.62
2023-05-04T13:52:17.523Z,30.67
2023-05-04T13:55:39.518Z,30.24
2023-05-04T13:59:02.591Z,30.21
2023-05-04T14:02:24.841Z,31.69
2023-05-04T14:05:47.065Z,31.21
2023-05-04T14:09:09.762Z,31.26
2023-05-04T14:12:31.749Z,32.72
2023-05-04T14:15:54.794Z,29.62
2023-05-04T14:19:16.761Z,30.29
2023-05-04T14:22:41.273Z,31.51
2023-05-04T14:26:02.949Z,30.18
2023-05-04T14:29:24.852Z,30.33
2023-05-04T14:32:48.254Z,29.63
2023-05-04T14:36:11.587Z,31.54
2023-05-04T14:39:33.547Z,32.16
2023-05-04T14:42:55.365Z,30.92
2023-05-04T14:46:17.444Z,30.68
2023-05-04T14:49:42.972Z,31.35
2023-05-04T14:53:04.905Z,32.41
2023-05-04T14:56:28.862Z,31.26
2023-05-04T14:59:51.295Z,31.91
2023-05-04T15:03:13.408Z,31.18
2023-05-04T15:06:36.496Z,31.27
2023-05-04T15:09:58.529Z,31.45
2023-05-04T15:13:20.870Z,31.46
2023-05-04T15:16:43.205Z,32.19
2023-05-04T15:20:05.994Z,31.52
2023-05-04T15:23:29.283Z,32.38
2023-05-04T15:26:51.340Z,32.49
2023-05-04T15:30:13.818Z,32.57
2023-05-04T15:33:35.587Z,32.96
2023-05-04T15:36:57.490Z,32.48
2023-05-04T15:40:21.001Z,32.71
2023-05-04T15:43:43.150Z,33.21
2023-05-04T15:47:05.491Z,34.15
2023-05-04T15:50:27.371Z,33.78
2023-05-04T15:53:49.152Z,34.62
2023-05-04T15:57:12.326Z,35.37
2023-05-04T16:00:34.508Z,35.80
2023-05-04T16:03:59.583Z,34.89
2023-05-04T16:07:21.695Z,35.03
2023-05-04T16:10:43.491Z,35.30
2023-05-04T16:14:06.762Z,35.16
2023-05-04T16:17:30.690Z,35.39
2023-05-04T16:20:54.714Z,35.85
2023-05-04T16:24:16.740Z,35.72
2023-05-04T16:27:38.636Z,35.40
2023-05-04T16:31:01.779Z,35.83
2023-05-04T16:34:23.815Z,35.10
2023-05-04T16:37:45.685Z,33.96
2023-05-04T16:41:07.866Z,35.93
2023-05-04T16:44:31.402Z,35.58
2023-05-04T16:47:54.628Z,35.29
2023-05-04T16:51:16.747Z,35.47
2023-05-04T16:54:38.444Z,34.79
2023-05-04T16:58:00.684Z,35.61
2023-05-04T17:01:23.095Z,35.56
2023-05-04T17:04:46.371Z,35.75
2023-05-04T17:08:08.366Z,36.10
2023-05-04T17:11:30.514Z,36.65
2023-05-04T17:14:52.331Z,37.07
2023-05-04T17:18:14.329Z,35.86
2023-05-04T17:21:37.831Z,37.35
2023-05-04T17:25:00.006Z,37.37
2023-05-04T17:28:22.122Z,38.05
2023-05-04T17:31:44.107Z,38.39
2023-05-04T17:35:20.336Z,38.17
2023-05-04T17:38:48.347Z,38.54
2023-05-04T17:42:10.906Z,38.22
2023-05-04T17:45:33.170Z,38.04
2023-05-04T17:48:56.605Z,39.88
2023-05-04T17:52:18.704Z,40.02
2023-05-04T17:55:41.853Z,39.33
2023-05-04T17:59:03.881Z,40.13
2023-05-04T18:02:25.599Z,41.03
2023-05-04T18:05:47.630Z,41.31
2023-05-04T18:09:09.406Z,41.70
2023-05-04T18:12:33.306Z,41.97
2023-05-04T18:15:56.229Z,42.56
2023-05-04T18:19:23.925Z,42.82
2023-05-04T18:22:46.698Z,43.58
2023-05-04T18:26:08.380Z,43.92
2023-05-04T18:29:32.272Z,44.50
2023-05-04T18:32:54.031Z,45.06
2023-05-04T18:36:15.799Z,44.63
2023-05-04T18:39:38.141Z,45.07
2023-05-04T18:42:59.855Z,46.06
2023-05-04T18:46:23.467Z,46.22
2023-05-04T18:49:45.481Z,46.34
2023-05-04T18:53:07.703Z,47.07
2023-05-04T18:56:29.640Z,47.84
2023-05-04T18:59:52.030Z,48.35
2023-05-04T19:03:15.448Z,48.72
2023-05-04T19:06:37.617Z,49.44
2023-05-04T19:09:59.383Z,49.02
2023-05-04T19:13:22.051Z,48.72
2023-05-04T19:16:43.898Z,50.31
2023-05-04T19:20:09.091Z,50.39
2023-05-04T19:23:31.100Z,50.69
2023-05-04T19:26:53.145Z,52.37
2023-05-04T19:30:15.301Z,52.81
2023-05-04T19:33:48.076Z,51.82
2023-05-04T19:37:12.659Z,53.44
2023-05-04T19:40:34.374Z,52.14
2023-05-04T19:43:56.120Z,53.46
2023-05-04T19:47:18.245Z,54.56
2023-05-04T19:50:40.202Z,54.30
2023-05-04T19:54:03.437Z,53.99
2023-05-04T19:57:25.664Z,54.02
2023-05-04T20:00:47.416Z,54.91
2023-05-04T20:04:09.555Z,53.77
2023-05-04T20:07:31.544Z,53.93
2023-05-04T20:10:54.923Z,54.37
2023-05-04T20:14:17.013Z,54.04
2023-05-04T20:17:39.059Z,54.94
2023-05-04T20:21:00.956Z,54.73
2023-05-04T20:24:23.282Z,55.97
2023-05-04T20:27:48.808Z,57.09
2023-05-04T20:31:10.880Z,57.36
2023-05-04T20:34:33.088Z,58.00
2023-05-04T20:37:55.305Z,57.44
2023-05-04T20:41:16.939Z,58.56
2023-05-04T20:44:40.349Z,59.66
2023-05-04T20:48:04.055Z,58.94
2023-05-04T20:51:26.647Z,59.74
2023-05-04T20:54:50.629Z,60.49
2023-05-04T20:58:12.360Z,59.60
2023-05-04T21:01:36.075Z,60.29
2023-05-04T21:04:58.718Z,60.68
2023-05-04T21:08:20.640Z,61.33
2023-05-04T21:11:42.458Z,61.68
2023-05-04T21:15:04.569Z,61.90
2023-05-04T21:18:27.650Z,62.04
2023-05-04T21:21:49.674Z,61.22
2023-05-04T21:25:11.805Z,61.82
2023-05-04T21:28:33.521Z,62.03
2023-05-04T21:31:55.986Z,63.47
2023-05-04T21:35:21.272Z,62.76
2023-05-04T21:38:43.555Z,62.79
2023-05-04T21:42:05.560Z,64.63
2023-05-04T21:45:27.413Z,64.14
2023-05-04T21:48:49.328Z,64.41
2023-05-04T21:52:12.536Z,64.01
2023-05-04T21:55:34.425Z,63.74
2023-05-04T21:58:56.521Z,65.35
2023-05-04T22:02:18.581Z,65.12
2023-05-04T22:05:40.657Z,65.59
2023-05-04T22:09:04.265Z,66.93
2023-05-04T22:12:26.285Z,67.05
2023-05-04T22:15:50.333Z,67.54
2023-05-04T22:19:12.942Z,67.07
2023-05-04T22:22:34.591Z,66.97
2023-05-04T22:25:57.810Z,66.71
2023-05-04T22:29:19.985Z,67.97
2023-05-04T22:32:41.923Z,68.19
2023-05-04T22:36:03.670Z,68.85
2023-05-04T22:39:25.452Z,68.10
2023-05-04T22:42:48.698Z,68.22
2023-05-04T22:46:15.883Z,68.51
2023-05-04T22:49:37.928Z,68.53
2023-05-04T22:52:59.776Z,68.24
2023-05-04T22:56:21.430Z,69.02
2023-05-04T22:59:44.483Z,68.40
2023-05-04T23:03:06.794Z,69.33
2023-05-04T23:06:28.995Z,68.94
2023-05-04T23:09:50.461Z,70.17
2023-05-04T23:13:12.853Z,69.72
2023-05-04T23:16:36.096Z,69.66
2023-05-04T23:19:58.088Z,70.14
2023-05-04T23:23:19.637Z,69.68
2023-05-04T23:26:41.834Z,69.97
2023-05-04T23:30:04.029Z,70.73
2023-05-04T23:33:27.158Z,70.75
2023-05-04T23:36:49.297Z,71.29
2023-05-04T23:40:12.331Z,70.79
2023-05-04T23:43:34.367Z,71.04
2023-05-04T23:46:55.992Z,70.96
2023-05-04T23:50:19.694Z,71.80
2023-05-04T23:53:41.677Z,71.77
2023-05-04T23:57:03.761Z,70.75
